createdAt,value
2019-05-25T00:00:20.856Z,37.75
2019-05-25T00:02:37.590Z,37.93
2019-05-25T00:04:55.420Z,38.17
2019-05-25T00:07:12.410Z,38.50
2019-05-25T00:09:29.511Z,38.22
2019-05-25T00:11:46.344Z,37.96
2019-05-25T00:14:03.291Z,37.72
2019-05-25T00:16:21.322Z,37.70
2019-05-25T00:18:38.292Z,37.86
2019-05-25T00:20:55.073Z,37.73
2019-05-25T00:23:11.845Z,38.44
2019-05-25T00:25:28.301Z,40.06
2019-05-25T00:27:45.254Z,38.55
2019-05-25T00:30:02.253Z,40.29
2019-05-25T00:32:20.305Z,40.12
2019-05-25T00:34:37.457Z,39.76
2019-05-25T00:36:54.411Z,38.26
2019-05-25T00:39:11.310Z,38.45
2019-05-25T00:41:28.280Z,38.08
2019-05-25T00:43:45.264Z,37.98
2019-05-25T00:46:02.342Z,38.45
2019-05-25T00:48:19.260Z,38.42
2019-05-25T00:50:36.251Z,37.95
2019-05-25T00:52:53.247Z,38.16
2019-05-25T00:55:10.311Z,38.21
2019-05-25T00:57:27.248Z,37.99
2019-05-25T00:59:44.621Z,38.79
2019-05-25T01:02:02.567Z,38.74
2019-05-25T01:04:19.249Z,38.66
2019-05-25T01:06:36.253Z,39.41
2019-05-25T01:08:53.360Z,39.02
2019-05-25T01:11:10.485Z,38.78
2019-05-25T01:13:27.361Z,38.55
2019-05-25T01:15:44.254Z,38.38
2019-05-25T01:18:01.278Z,42.93
2019-05-25T01:20:18.242Z,40.09
2019-05-25T01:22:35.441Z,38.54
2019-05-25T01:24:52.432Z,38.55
2019-05-25T01:27:09.486Z,38.10
2019-05-25T01:29:26.456Z,40.74
2019-05-25T01:31:43.257Z,38.88
2019-05-25T01:34:00.251Z,38.39
2019-05-25T01:36:17.256Z,37.96
2019-05-25T01:38:34.257Z,38.11
2019-05-25T01:40:51.257Z,38.59
2019-05-25T01:43:07.998Z,38.30
2019-05-25T01:45:24.664Z,38.40
2019-05-25T01:47:41.309Z,39.56
2019-05-25T01:49:58.260Z,38.67
2019-05-25T01:52:15.068Z,38.09
2019-05-25T01:54:32.024Z,37.88
2019-05-25T01:56:48.661Z,38.12
2019-05-25T01:59:05.339Z,40.69
2019-05-25T02:01:22.240Z,38.38
2019-05-25T02:03:39.247Z,38.03
2019-05-25T02:05:56.259Z,37.71
2019-05-25T02:08:13.291Z,39.13
2019-05-25T02:10:30.444Z,43.25
2019-05-25T02:12:47.317Z,42.27
2019-05-25T02:15:04.515Z,39.29
2019-05-25T02:17:21.418Z,39.11
2019-05-25T02:19:38.278Z,38.68
2019-05-25T02:21:56.993Z,38.30
2019-05-25T02:24:13.826Z,38.39
2019-05-25T02:26:30.531Z,37.99
2019-05-25T02:28:47.293Z,38.77
2019-05-25T02:31:04.243Z,41.60
2019-05-25T02:33:21.223Z,40.18
2019-05-25T02:35:38.277Z,39.37
2019-05-25T02:37:55.240Z,38.66
2019-05-25T02:40:12.342Z,38.67
2019-05-25T02:42:29.234Z,39.31
2019-05-25T02:44:46.238Z,39.40
2019-05-25T02:47:03.366Z,38.78
2019-05-25T02:49:21.610Z,38.59
2019-05-25T02:51:38.465Z,39.25
2019-05-25T02:53:55.440Z,38.82
2019-05-25T02:56:12.426Z,38.79
2019-05-25T02:58:29.309Z,39.52
2019-05-25T03:00:46.284Z,39.12
2019-05-25T03:03:03.590Z,39.65
2019-05-25T03:05:20.272Z,39.59
2019-05-25T03:07:37.299Z,40.01
2019-05-25T03:09:54.266Z,40.40
2019-05-25T03:12:11.428Z,40.00
2019-05-25T03:14:28.254Z,40.54
2019-05-25T03:16:45.252Z,39.75
2019-05-25T03:19:02.322Z,39.25
2019-05-25T03:21:19.317Z,39.59
2019-05-25T03:23:36.329Z,39.80
2019-05-25T03:25:53.433Z,39.58
2019-05-25T03:28:11.503Z,39.49
2019-05-25T03:30:34.548Z,39.35
2019-05-25T03:32:52.686Z,39.08
2019-05-25T03:35:09.805Z,40.95
2019-05-25T03:37:26.455Z,42.83
2019-05-25T03:39:43.752Z,42.83
2019-05-25T03:42:00.947Z,39.75
2019-05-25T03:44:17.534Z,39.75
2019-05-25T03:46:34.335Z,39.58
2019-05-25T03:48:51.499Z,39.94
2019-05-25T03:51:08.298Z,39.68
2019-05-25T03:53:25.429Z,39.05
2019-05-25T03:55:42.433Z,38.75
2019-05-25T03:58:00.331Z,39.30
2019-05-25T04:00:17.793Z,39.02
2019-05-25T04:02:34.582Z,39.16
2019-05-25T04:04:51.278Z,39.16
2019-05-25T04:07:08.241Z,39.39
2019-05-25T04:09:25.235Z,38.96
2019-05-25T04:11:42.459Z,39.27
2019-05-25T04:13:59.505Z,38.76
2019-05-25T04:16:16.272Z,39.14
2019-05-25T04:18:34.551Z,39.51
2019-05-25T04:20:51.443Z,42.07
2019-05-25T04:23:08.434Z,40.60
2019-05-25T04:25:25.555Z,39.19
2019-05-25T04:27:43.818Z,38.95
2019-05-25T04:30:00.449Z,39.55
2019-05-25T04:32:17.400Z,41.66
2019-05-25T04:34:34.290Z,40.11
2019-05-25T04:36:51.245Z,39.14
2019-05-25T04:39:08.567Z,38.87
2019-05-25T04:41:25.390Z,38.87
2019-05-25T04:43:42.278Z,39.17
2019-05-25T04:45:59.451Z,38.72
2019-05-25T04:48:16.331Z,38.48
2019-05-25T04:50:33.240Z,38.96
2019-05-25T04:52:50.220Z,41.43
2019-05-25T04:55:07.275Z,38.55
2019-05-25T04:57:24.258Z,38.35
2019-05-25T04:59:41.384Z,37.80
2019-05-25T05:01:58.426Z,37.75
2019-05-25T05:04:16.668Z,37.24
2019-05-25T05:06:34.255Z,37.84
2019-05-25T05:08:51.301Z,37.42
2019-05-25T05:11:08.238Z,37.57
2019-05-25T05:13:25.478Z,39.07
2019-05-25T05:15:42.785Z,37.71
2019-05-25T05:17:59.550Z,36.83
2019-05-25T05:20:16.627Z,36.83
2019-05-25T05:22:33.425Z,36.83
2019-05-25T05:24:50.473Z,36.92
2019-05-25T05:27:07.536Z,36.73
2019-05-25T05:29:24.637Z,35.96
2019-05-25T05:31:41.808Z,35.58
2019-05-25T05:33:58.412Z,36.41
2019-05-25T05:36:15.413Z,37.34
2019-05-25T05:38:32.480Z,35.31
2019-05-25T05:40:49.386Z,35.28
2019-05-25T05:43:11.518Z,34.59
2019-05-25T05:45:28.496Z,34.25
2019-05-25T05:47:45.444Z,34.35
2019-05-25T05:50:02.319Z,34.28
2019-05-25T05:52:19.606Z,33.71
2019-05-25T05:54:36.352Z,33.38
2019-05-25T05:56:53.583Z,33.21
2019-05-25T05:59:10.472Z,33.88
2019-05-25T06:01:27.451Z,33.45
2019-05-25T06:03:44.790Z,31.10
2019-05-25T06:06:03.268Z,31.10
2019-05-25T06:08:20.288Z,31.95
2019-05-25T06:10:37.626Z,31.09
2019-05-25T06:12:55.246Z,29.80
2019-05-25T06:15:13.081Z,29.55
2019-05-25T06:17:30.102Z,28.99
2019-05-25T06:19:47.249Z,29.09
2019-05-25T06:22:04.421Z,28.16
2019-05-25T06:24:21.927Z,28.86
2019-05-25T06:26:40.853Z,28.46
2019-05-25T06:28:57.634Z,29.19
2019-05-25T06:31:14.332Z,30.74
2019-05-25T06:33:33.530Z,30.27
2019-05-25T06:35:50.565Z,31.20
2019-05-25T06:38:07.508Z,28.47
2019-05-25T06:40:24.432Z,28.09
2019-05-25T06:42:42.416Z,28.04
2019-05-25T06:44:59.469Z,31.52
2019-05-25T06:47:16.458Z,29.04
2019-05-25T06:49:33.481Z,28.93
2019-05-25T06:51:50.581Z,27.83
2019-05-25T06:54:07.324Z,29.01
2019-05-25T06:56:24.278Z,29.34
2019-05-25T06:58:41.294Z,27.99
2019-05-25T07:00:58.265Z,26.88
2019-05-25T07:03:15.266Z,25.75
2019-05-25T07:05:32.283Z,26.56
2019-05-25T07:07:49.519Z,27.51
2019-05-25T07:10:07.376Z,27.00
2019-05-25T07:12:26.004Z,25.65
2019-05-25T07:14:43.248Z,24.95
2019-05-25T07:17:00.260Z,23.48
2019-05-25T07:19:17.502Z,24.68
2019-05-25T07:21:34.470Z,24.61
2019-05-25T07:23:51.327Z,24.40
2019-05-25T07:26:08.437Z,22.96
2019-05-25T07:28:27.291Z,24.35
2019-05-25T07:30:46.571Z,25.99
2019-05-25T07:33:03.499Z,25.12
2019-05-25T07:35:20.464Z,27.23
2019-05-25T07:37:37.321Z,24.71
2019-05-25T07:39:54.510Z,23.03
2019-05-25T07:42:12.006Z,22.91
2019-05-25T07:44:28.819Z,24.95
2019-05-25T07:46:46.096Z,24.81
2019-05-25T07:49:03.308Z,24.09
2019-05-25T07:51:20.869Z,27.10
2019-05-25T07:53:37.651Z,24.82
2019-05-25T07:55:54.358Z,24.91
2019-05-25T07:58:17.242Z,25.68
2019-05-25T08:13:29.251Z,25.80
2019-05-25T08:15:46.424Z,26.44
2019-05-25T08:18:03.587Z,29.33
2019-05-25T08:20:20.582Z,31.02
2019-05-25T08:22:37.319Z,28.76
2019-05-25T08:24:54.486Z,28.87
2019-05-25T08:27:11.478Z,30.82
2019-05-25T08:29:28.338Z,28.53
2019-05-25T08:31:45.289Z,30.74
2019-05-25T08:34:02.257Z,29.59
2019-05-25T08:36:19.273Z,27.55
2019-05-25T08:38:36.261Z,28.77
2019-05-25T08:40:53.357Z,28.62
2019-05-25T08:43:10.610Z,29.87
2019-05-25T08:45:27.477Z,28.71
2019-05-25T08:47:44.453Z,30.88
2019-05-25T08:50:01.533Z,26.46
2019-05-25T08:52:18.501Z,29.62
2019-05-25T08:54:35.384Z,29.91
2019-05-25T08:56:52.373Z,27.82
2019-05-25T08:59:09.418Z,29.14
2019-05-25T09:01:26.667Z,27.91
2019-05-25T09:03:43.442Z,28.40
2019-05-25T09:06:00.597Z,30.07
2019-05-25T09:08:18.389Z,32.73
2019-05-25T09:10:35.837Z,30.74
2019-05-25T09:12:52.610Z,32.31
2019-05-25T09:15:09.496Z,31.48
2019-05-25T09:17:26.981Z,31.84
2019-05-25T09:19:44.311Z,28.76
2019-05-25T09:22:03.595Z,29.58
2019-05-25T09:24:20.442Z,26.46
2019-05-25T09:26:37.501Z,30.33
2019-05-25T09:29:04.091Z,29.63
2019-05-25T09:31:13.389Z,31.00
2019-05-25T09:33:35.452Z,31.59
2019-05-25T09:35:54.003Z,31.23
2019-05-25T09:38:14.301Z,30.83
2019-05-25T09:40:31.472Z,27.36
2019-05-25T09:42:48.522Z,25.91
2019-05-25T09:45:05.559Z,28.10
2019-05-25T09:47:22.595Z,32.59
2019-05-25T09:49:40.253Z,33.47
2019-05-25T09:51:57.609Z,32.78
2019-05-25T09:54:14.828Z,32.70
2019-05-25T09:56:31.541Z,32.95
2019-05-25T09:58:49.421Z,31.54
2019-05-25T10:01:07.846Z,33.38
2019-05-25T10:03:25.113Z,32.22
2019-05-25T10:05:42.559Z,33.02
2019-05-25T10:07:59.457Z,31.26
2019-05-25T10:10:17.005Z,31.26
2019-05-25T10:12:34.222Z,28.17
2019-05-25T10:14:51.345Z,30.01
2019-05-25T10:17:08.452Z,30.15
2019-05-25T10:19:25.458Z,28.11
2019-05-25T10:21:42.457Z,29.28
2019-05-25T10:23:59.465Z,27.48
2019-05-25T10:26:16.504Z,27.92
2019-05-25T10:28:33.282Z,28.39
2019-05-25T10:30:50.286Z,31.27
2019-05-25T10:33:09.454Z,30.23
2019-05-25T10:35:26.458Z,26.92
2019-05-25T10:37:45.992Z,26.15
2019-05-25T10:40:03.408Z,27.83
2019-05-25T10:42:20.513Z,27.22
2019-05-25T10:44:37.410Z,27.22
2019-05-25T10:46:55.352Z,29.12
2019-05-25T10:49:13.971Z,31.44
2019-05-25T10:51:30.654Z,32.49
2019-05-25T10:53:47.502Z,28.60
2019-05-25T10:56:04.671Z,29.73
2019-05-25T10:58:23.045Z,30.05
2019-05-25T11:00:39.838Z,31.29
2019-05-25T11:02:56.611Z,30.56
2019-05-25T11:05:13.663Z,28.01
2019-05-25T11:07:30.534Z,25.34
2019-05-25T11:09:48.863Z,24.37
2019-05-25T11:12:05.563Z,29.58
2019-05-25T11:14:22.287Z,30.51
2019-05-25T11:16:40.600Z,29.50
2019-05-25T11:18:57.455Z,30.46
2019-05-25T11:21:14.501Z,26.72
2019-05-25T11:23:32.301Z,29.53
2019-05-25T11:25:49.246Z,31.36
2019-05-25T11:28:08.461Z,29.82
2019-05-25T11:30:25.258Z,33.19
2019-05-25T11:32:42.092Z,29.25
2019-05-25T11:34:59.071Z,29.23
2019-05-25T11:37:16.654Z,30.15
2019-05-25T11:39:33.490Z,28.57
2019-05-25T11:41:50.455Z,30.43
2019-05-25T11:44:07.469Z,32.11
2019-05-25T11:46:24.765Z,31.22
2019-05-25T11:48:45.985Z,28.74
2019-05-25T11:51:02.459Z,32.85
2019-05-25T11:53:19.493Z,32.85
2019-05-25T11:55:38.330Z,31.48
2019-05-25T11:57:55.250Z,32.48
2019-05-25T12:00:24.253Z,31.32
2019-05-25T12:02:31.626Z,31.00
2019-05-25T12:04:48.349Z,29.73
2019-05-25T12:07:06.477Z,29.65
2019-05-25T12:09:23.441Z,30.28
2019-05-25T12:11:40.401Z,31.34
2019-05-25T12:14:00.374Z,32.43
2019-05-25T12:16:17.316Z,30.64
2019-05-25T12:18:34.384Z,31.33
2019-05-25T12:20:51.336Z,31.40
2019-05-25T12:23:09.631Z,32.34
2019-05-25T12:25:26.829Z,29.17
2019-05-25T12:27:48.877Z,33.24
2019-05-25T12:30:04.219Z,31.45
2019-05-25T12:32:21.382Z,30.00
2019-05-25T12:34:38.355Z,30.93
2019-05-25T12:36:55.296Z,32.87
2019-05-25T12:39:12.310Z,30.03
2019-05-25T12:41:29.393Z,29.11
2019-05-25T12:43:46.259Z,27.25
2019-05-25T12:46:03.327Z,26.84
2019-05-25T12:48:20.378Z,27.03
2019-05-25T12:50:37.243Z,26.83
2019-05-25T12:52:54.254Z,27.00
2019-05-25T12:55:11.293Z,28.36
2019-05-25T12:57:28.341Z,29.15
2019-05-25T12:59:45.324Z,27.92
2019-05-25T13:02:02.438Z,27.13
2019-05-25T13:04:20.476Z,30.17
2019-05-25T13:06:37.488Z,29.50
2019-05-25T13:08:54.532Z,29.34
2019-05-25T13:11:11.511Z,31.09
2019-05-25T13:13:28.455Z,33.46
2019-05-25T13:15:46.490Z,31.44
2019-05-25T13:18:03.865Z,28.69
2019-05-25T13:20:20.619Z,27.07
2019-05-25T13:22:39.596Z,27.71
2019-05-25T13:24:57.538Z,27.61
2019-05-25T13:27:14.975Z,28.34
2019-05-25T13:29:31.882Z,28.23
2019-05-25T13:31:51.236Z,29.26
2019-05-25T13:34:08.446Z,25.35
2019-05-25T13:36:25.495Z,28.48
2019-05-25T13:38:44.501Z,27.19
2019-05-25T13:41:01.443Z,26.17
2019-05-25T13:43:18.480Z,28.80
2019-05-25T13:45:35.630Z,27.15
2019-05-25T13:47:52.589Z,29.42
2019-05-25T13:50:09.510Z,29.39
2019-05-25T13:52:27.557Z,31.63
2019-05-25T13:54:44.327Z,29.47
2019-05-25T13:57:01.319Z,27.92
2019-05-25T13:59:18.543Z,28.75
2019-05-25T14:01:36.263Z,30.67
2019-05-25T14:03:55.862Z,29.30
2019-05-25T14:06:12.066Z,28.20
2019-05-25T14:08:28.988Z,29.92
2019-05-25T14:10:46.079Z,27.67
2019-05-25T14:13:03.700Z,26.59
2019-05-25T14:15:20.525Z,28.42
2019-05-25T14:17:37.464Z,28.42
2019-05-25T14:19:54.523Z,26.39
2019-05-25T14:22:11.590Z,25.31
2019-05-25T14:24:28.794Z,24.34
2019-05-25T14:26:46.056Z,23.98
2019-05-25T14:29:02.762Z,22.84
2019-05-25T14:31:19.818Z,24.98
2019-05-25T14:33:36.963Z,24.98
2019-05-25T14:35:53.647Z,25.10
2019-05-25T14:38:10.548Z,25.05
2019-05-25T14:40:27.642Z,25.05
2019-05-25T14:42:44.350Z,26.87
2019-05-25T14:45:01.634Z,25.56
2019-05-25T14:47:19.857Z,26.56
2019-05-25T14:49:37.318Z,28.37
2019-05-25T14:51:54.583Z,25.23
2019-05-25T14:54:11.609Z,26.60
2019-05-25T14:56:28.459Z,26.44
2019-05-25T14:58:45.721Z,24.89
2019-05-25T15:01:03.482Z,25.14
2019-05-25T15:03:20.418Z,25.14
2019-05-25T15:05:37.489Z,25.50
2019-05-25T15:07:54.758Z,23.82
2019-05-25T15:10:11.496Z,22.27
2019-05-25T15:12:28.353Z,22.27
2019-05-25T15:14:45.282Z,23.39
2019-05-25T15:17:02.459Z,24.63
2019-05-25T15:19:19.477Z,24.03
2019-05-25T15:21:36.593Z,23.99
2019-05-25T15:23:53.514Z,25.70
2019-05-25T15:26:10.286Z,24.70
2019-05-25T15:28:27.297Z,22.48
2019-05-25T15:30:45.267Z,24.20
2019-05-25T15:33:02.508Z,23.53
2019-05-25T15:35:20.622Z,25.78
2019-05-25T15:37:38.028Z,25.64
2019-05-25T15:39:55.060Z,21.57
2019-05-25T15:42:11.831Z,23.56
2019-05-25T15:44:28.692Z,25.07
2019-05-25T15:46:45.900Z,25.20
2019-05-25T15:49:03.415Z,24.26
2019-05-25T15:51:20.467Z,24.37
2019-05-25T15:53:37.444Z,26.43
2019-05-25T15:55:54.534Z,24.85
2019-05-25T15:58:12.675Z,23.82
2019-05-25T16:00:49.379Z,23.82
2019-05-25T16:03:06.347Z,25.35
2019-05-25T16:05:23.283Z,26.63
2019-05-25T16:07:43.280Z,24.85
2019-05-25T16:10:00.479Z,25.89
2019-05-25T16:12:17.535Z,25.44
2019-05-25T16:14:34.332Z,24.13
2019-05-25T16:16:51.293Z,21.28
2019-05-25T16:19:08.252Z,20.99
2019-05-25T16:21:25.495Z,22.25
2019-05-25T16:23:42.728Z,22.37
2019-05-25T16:25:59.472Z,20.75
2019-05-25T16:28:16.457Z,20.75
2019-05-25T16:30:33.527Z,22.63
2019-05-25T16:35:10.098Z,22.55
2019-05-25T16:37:27.338Z,23.55
2019-05-25T16:39:44.635Z,24.66
2019-05-25T16:42:01.495Z,23.03
2019-05-25T16:44:18.560Z,23.68
2019-05-25T16:46:37.323Z,24.85
2019-05-25T16:48:54.447Z,25.01
2019-05-25T16:51:11.836Z,24.17
2019-05-25T16:53:28.687Z,27.10
2019-05-25T16:55:46.056Z,27.00
2019-05-25T16:58:03.321Z,27.00
2019-05-25T17:00:27.352Z,27.84
2019-05-25T17:02:44.775Z,26.86
2019-05-25T17:05:04.016Z,27.66
2019-05-25T17:07:20.766Z,27.66
2019-05-25T17:09:37.696Z,27.77
2019-05-25T17:11:54.617Z,27.77
2019-05-25T17:14:11.318Z,25.99
2019-05-25T17:16:29.593Z,28.37
2019-05-25T17:18:46.448Z,29.57
2019-05-25T17:21:03.563Z,29.47
2019-05-25T17:23:20.331Z,27.53
2019-05-25T17:25:37.378Z,30.05
2019-05-25T17:27:54.625Z,30.34
2019-05-25T17:30:13.044Z,31.09
2019-05-25T17:32:30.350Z,31.09
2019-05-25T17:34:47.313Z,30.26
2019-05-25T17:37:04.496Z,30.76
2019-05-25T17:39:24.269Z,29.85
2019-05-25T17:41:41.496Z,32.02
2019-05-25T17:43:58.370Z,32.17
2019-05-25T17:46:15.517Z,32.09
2019-05-25T17:48:32.806Z,31.45
2019-05-25T17:50:50.334Z,30.03
2019-05-25T17:53:07.380Z,31.32
2019-05-25T17:55:24.355Z,33.47
2019-05-25T17:57:41.436Z,33.61
2019-05-25T17:59:59.618Z,33.83
2019-05-25T18:02:17.078Z,34.86
2019-05-25T18:04:34.272Z,34.03
2019-05-25T18:06:51.750Z,33.84
2019-05-25T18:09:09.327Z,35.85
2019-05-25T18:11:26.868Z,36.13
2019-05-25T18:13:44.605Z,35.76
2019-05-25T18:16:01.617Z,35.81
2019-05-25T18:18:20.522Z,35.81
2019-05-25T18:20:38.138Z,35.16
2019-05-25T18:22:55.268Z,34.43
2019-05-25T18:25:18.248Z,34.79
2019-05-25T18:30:05.273Z,35.81
2019-05-25T18:32:22.305Z,34.84
2019-05-25T18:34:39.295Z,34.26
2019-05-25T18:36:56.456Z,36.18
2019-05-25T18:39:13.980Z,36.57
2019-05-25T18:41:30.820Z,36.10
2019-05-25T18:43:47.874Z,35.50
2019-05-25T18:46:05.308Z,35.50
2019-05-25T18:48:22.357Z,37.18
2019-05-25T18:50:39.483Z,36.96
2019-05-25T18:52:56.531Z,38.11
2019-05-25T18:55:14.873Z,38.03
2019-05-25T18:57:31.488Z,38.58
2019-05-25T18:59:48.486Z,39.13
2019-05-25T19:02:05.482Z,39.85
2019-05-25T19:04:37.057Z,38.29
2019-05-25T19:06:43.349Z,39.50
2019-05-25T19:09:01.081Z,38.63
2019-05-25T19:11:19.568Z,37.42
2019-05-25T19:13:38.074Z,37.20
2019-05-25T19:15:55.889Z,39.01
2019-05-25T19:18:14.357Z,39.07
2019-05-25T19:20:31.612Z,39.82
2019-05-25T19:22:48.597Z,37.02
2019-05-25T19:25:05.812Z,36.88
2019-05-25T19:27:23.692Z,37.73
2019-05-25T19:29:40.859Z,37.15
2019-05-25T19:31:59.905Z,37.15
2019-05-25T19:34:19.082Z,37.22
2019-05-25T19:36:36.981Z,40.59
2019-05-25T19:38:55.367Z,38.91
2019-05-25T19:41:15.782Z,37.55
2019-05-25T19:43:32.828Z,37.56
2019-05-25T19:45:50.242Z,37.56
2019-05-25T19:48:07.258Z,39.38
2019-05-25T19:50:25.489Z,41.72
2019-05-25T19:52:43.671Z,38.94
2019-05-25T19:55:00.475Z,38.77
2019-05-25T19:57:17.459Z,38.77
2019-05-25T19:59:34.557Z,38.98
2019-05-25T20:01:51.550Z,38.89
2019-05-25T20:04:08.603Z,38.92
2019-05-25T20:06:25.678Z,41.76
2019-05-25T20:08:42.481Z,41.69
2019-05-25T20:10:59.441Z,39.91
2019-05-25T20:13:16.577Z,39.52
2019-05-25T20:15:34.055Z,39.81
2019-05-25T20:17:50.962Z,39.71
2019-05-25T20:20:09.298Z,39.64
2019-05-25T20:22:26.698Z,38.81
2019-05-25T20:24:43.468Z,39.25
2019-05-25T20:27:01.727Z,39.25
2019-05-25T20:29:18.691Z,38.86
2019-05-25T20:31:35.517Z,39.37
2019-05-25T20:33:52.398Z,42.07
2019-05-25T20:36:09.399Z,40.12
2019-05-25T20:38:26.392Z,39.63
2019-05-25T20:40:43.519Z,40.77
2019-05-25T20:43:00.368Z,43.36
2019-05-25T20:45:19.287Z,41.06
2019-05-25T20:47:36.257Z,40.75
2019-05-25T20:49:54.094Z,40.17
2019-05-25T20:52:12.916Z,39.97
2019-05-25T20:54:31.490Z,40.56
2019-05-25T20:56:48.492Z,41.37
2019-05-25T20:59:07.280Z,42.91
2019-05-25T21:01:26.770Z,41.07
2019-05-25T21:03:43.660Z,40.62
2019-05-25T21:06:00.417Z,40.78
2019-05-25T21:08:17.394Z,40.78
2019-05-25T21:10:35.502Z,39.75
2019-05-25T21:12:53.584Z,40.27
2019-05-25T21:15:10.682Z,40.47
2019-05-25T21:17:27.336Z,41.00
2019-05-25T21:19:44.323Z,40.36
2019-05-25T21:22:01.454Z,40.06
2019-05-25T21:24:18.525Z,41.77
2019-05-25T21:26:35.546Z,42.43
2019-05-25T21:28:52.451Z,40.79
2019-05-25T21:31:09.447Z,40.87
2019-05-25T21:33:26.447Z,40.31
2019-05-25T21:35:44.500Z,40.28
2019-05-25T21:38:01.357Z,39.86
2019-05-25T21:40:18.438Z,40.14
2019-05-25T21:42:35.450Z,40.25
2019-05-25T21:44:52.428Z,39.88
2019-05-25T21:47:09.423Z,39.52
2019-05-25T22:13:36.019Z,42.41
2019-05-25T22:15:52.832Z,40.82
2019-05-25T22:18:09.605Z,41.09
2019-05-25T22:20:26.457Z,40.32
2019-05-25T22:22:45.248Z,40.64
2019-05-25T22:25:02.496Z,40.00
2019-05-25T22:27:19.516Z,40.48
2019-05-25T22:29:36.549Z,40.15
2019-05-25T22:31:53.473Z,39.59
2019-05-25T22:34:10.331Z,39.37
2019-05-25T22:36:39.840Z,39.66
2019-05-25T22:38:45.625Z,40.34
2019-05-25T22:41:02.414Z,40.62
2019-05-25T22:43:19.561Z,42.66
2019-05-25T22:45:36.315Z,44.62
2019-05-25T22:47:53.255Z,44.35
2019-05-25T22:50:10.973Z,41.19
2019-05-25T22:52:28.268Z,40.92
2019-05-25T22:54:46.842Z,40.22
2019-05-25T22:57:03.441Z,39.99
2019-05-25T22:59:20.460Z,40.03
2019-05-25T23:01:37.472Z,39.70
2019-05-25T23:03:54.307Z,40.79
2019-05-25T23:06:11.463Z,41.59
2019-05-25T23:08:28.519Z,41.42
2019-05-25T23:10:45.493Z,40.40
2019-05-25T23:13:03.127Z,40.65
2019-05-25T23:15:19.926Z,40.91
2019-05-25T23:17:36.471Z,40.97
2019-05-25T23:19:53.334Z,40.45
2019-05-25T23:22:10.251Z,40.82
2019-05-25T23:24:27.269Z,41.00
2019-05-25T23:26:44.226Z,41.22
2019-05-25T23:29:01.078Z,40.89
2019-05-25T23:31:17.679Z,41.06
2019-05-25T23:33:34.541Z,40.67
2019-05-25T23:35:51.372Z,41.17
2019-05-25T23:38:08.248Z,40.86
2019-05-25T23:40:25.400Z,41.29
2019-05-25T23:42:42.328Z,41.43
2019-05-25T23:44:59.505Z,41.58
2019-05-25T23:47:16.442Z,45.05
2019-05-25T23:49:33.589Z,42.10
2019-05-25T23:51:50.353Z,43.07
2019-05-25T23:54:07.298Z,42.17
2019-05-25T23:56:24.275Z,41.82
2019-05-25T23:58:41.232Z,41.50
